Time;durP1;ratioP1;P1;durP2;ratioP2;P2;SDS_P1;SDS_P2;PMS_P1;PMS_P2;Temp;Humidity;BMP_temperature;BMP_pressure;BME280_temperature;BME280_humidity;BME280_pressure;Samples;Min_cycle;Max_cycle;Signal;HPM_P1;HPM_P2
2022/08/10 00:01:16;;;;;;;4.85;4.10;;;17.20;99.90;;;;;;5045563;28;20194;-75
2022/08/10 00:03:42;;;;;;;5.43;4.32;;;17.20;99.90;;;;;;5069112;28;20056;-75
2022/08/10 00:06:08;;;;;;;5.32;4.40;;;17.20;99.90;;;;;;5068616;28;20056;-76
2022/08/10 00:08:35;;;;;;;7.00;4.30;;;17.10;99.90;;;;;;5049001;28;20055;-76
2022/08/10 00:11:01;;;;;;;6.28;4.47;;;17.10;99.90;;;;;;5060675;28;20044;-75
2022/08/10 00:13:26;;;;;;;4.85;4.40;;;17.10;99.90;;;;;;5048129;28;20247;-76
2022/08/10 00:15:53;;;;;;;5.60;4.28;;;17.10;99.90;;;;;;5047014;28;20406;-77
2022/08/10 00:18:18;;;;;;;6.38;4.38;;;17.10;99.90;;;;;;5046913;28;20653;-75
2022/08/10 00:20:44;;;;;;;7.18;4.53;;;17.10;99.90;;;;;;5062592;28;20093;-76
2022/08/10 00:23:10;;;;;;;6.55;4.93;;;17.10;99.90;;;;;;5066423;28;20043;-76
2022/08/10 00:25:36;;;;;;;5.30;4.80;;;17.10;99.90;;;;;;5050822;28;20129;-75
2022/08/10 00:28:02;;;;;;;4.80;4.40;;;17.00;99.90;;;;;;5067817;28;20036;-76
2022/08/10 00:30:27;;;;;;;6.85;4.82;;;17.00;99.90;;;;;;5062097;28;20037;-76
2022/08/10 00:32:53;;;;;;;5.43;4.50;;;17.00;99.90;;;;;;5062379;28;20033;-76
2022/08/10 00:35:19;;;;;;;6.07;4.35;;;17.00;99.90;;;;;;5062406;28;20162;-76
2022/08/10 00:37:44;;;;;;;5.57;4.97;;;16.90;99.90;;;;;;5066327;28;20044;-77
2022/08/10 00:40:11;;;;;;;6.47;4.85;;;16.90;99.90;;;;;;5065187;28;20045;-75
2022/08/10 00:42:36;;;;;;;7.55;5.20;;;16.90;99.90;;;;;;5069221;28;20049;-76
2022/08/10 00:45:02;;;;;;;6.28;5.63;;;16.80;99.90;;;;;;5065630;28;20048;-76
2022/08/10 00:47:28;;;;;;;6.47;5.60;;;16.70;99.90;;;;;;5045883;28;20047;-76
2022/08/10 00:49:54;;;;;;;6.70;5.13;;;16.70;99.90;;;;;;5064712;28;20040;-77
2022/08/10 00:52:20;;;;;;;6.18;4.95;;;16.70;99.90;;;;;;5049592;28;20041;-77
2022/08/10 00:54:47;;;;;;;6.47;5.72;;;16.70;99.90;;;;;;5063436;28;20070;-76
2022/08/10 00:57:13;;;;;;;6.95;5.80;;;16.60;99.90;;;;;;5064988;28;20047;-76
2022/08/10 00:59:39;;;;;;;6.50;5.80;;;16.60;99.90;;;;;;5064274;28;20067;-77
2022/08/10 01:02:05;;;;;;;6.55;5.80;;;16.50;99.90;;;;;;5064056;28;20045;-76
2022/08/10 01:04:32;;;;;;;6.78;5.80;;;16.50;99.90;;;;;;5061402;28;20121;-76
2022/08/10 01:07:32;;;;;;;7.00;6.30;;;16.50;99.90;;;;;;5064864;28;20037;-76
2022/08/10 01:10:09;;;;;;;7.57;6.43;;;16.40;99.90;;;;;;5006156;28;20143;-75
2022/08/10 01:12:48;;;;;;;7.28;6.57;;;16.40;99.90;;;;;;5050232;28;20059;-76
2022/08/10 01:15:20;;;;;;;8.05;6.55;;;16.40;99.90;;;;;;5045490;28;20692;-76
2022/08/10 01:18:03;;;;;;;8.10;6.82;;;16.40;99.90;;;;;;5065055;28;20049;-76
2022/08/10 01:20:46;;;;;;;7.43;6.63;;;16.40;99.90;;;;;;5045327;28;20036;-75
2022/08/10 01:23:20;;;;;;;7.68;6.97;;;16.40;99.90;;;;;;5065885;28;20046;-76
2022/08/10 01:26:05;;;;;;;7.78;6.97;;;16.40;99.90;;;;;;5058979;28;20094;-76
2022/08/10 01:28:37;;;;;;;8.40;7.35;;;16.40;99.90;;;;;;5046547;28;20057;-75
2022/08/10 01:31:03;;;;;;;8.15;7.25;;;16.40;99.90;;;;;;5060841;28;20053;-76
2022/08/10 01:33:39;;;;;;;9.30;7.70;;;16.40;99.90;;;;;;5064116;28;20055;-76
2022/08/10 01:36:18;;;;;;;8.15;7.35;;;16.40;99.90;;;;;;5063337;28;20298;-75
2022/08/10 01:38:47;;;;;;;8.30;7.05;;;16.40;99.90;;;;;;5064915;28;20440;-76
2022/08/10 01:41:26;;;;;;;9.10;7.65;;;16.30;99.90;;;;;;5061567;28;20059;-77
2022/08/10 01:44:04;;;;;;;8.77;7.88;;;16.40;99.90;;;;;;5062785;28;20048;-76
2022/08/10 01:46:32;;;;;;;8.00;7.20;;;16.40;99.90;;;;;;5058180;28;20090;-76
2022/08/10 01:48:59;;;;;;;10.00;7.65;;;16.30;99.90;;;;;;5063607;28;20403;-76
2022/08/10 01:51:34;;;;;;;9.93;8.65;;;16.30;99.90;;;;;;5065477;28;20044;-76
2022/08/10 01:54:09;;;;;;;9.88;8.75;;;16.20;99.90;;;;;;5048831;28;20033;-77
2022/08/10 01:56:43;;;;;;;10.95;9.40;;;16.20;99.90;;;;;;5065859;28;20060;-76
2022/08/10 01:59:22;;;;;;;10.23;8.75;;;16.20;99.90;;;;;;5043591;28;20242;-76
2022/08/10 02:01:55;;;;;;;10.50;9.35;;;16.10;99.90;;;;;;5059336;28;20037;-75
2022/08/10 02:04:23;;;;;;;9.68;8.52;;;16.10;99.90;;;;;;5034612;28;20053;-76
2022/08/10 02:06:51;;;;;;;10.07;9.05;;;16.00;99.90;;;;;;5063863;28;20500;-77
2022/08/10 02:09:21;;;;;;;9.68;8.63;;;16.00;99.90;;;;;;5060774;28;20046;-76
2022/08/10 02:11:49;;;;;;;11.95;9.25;;;16.00;99.90;;;;;;5046006;28;20075;-77
2022/08/10 02:14:16;;;;;;;10.00;9.00;;;16.00;99.90;;;;;;5065490;28;20109;-77
2022/08/10 02:16:44;;;;;;;10.65;9.20;;;16.10;99.90;;;;;;5046122;28;20062;-76
2022/08/10 02:19:13;;;;;;;10.90;9.73;;;16.10;99.90;;;;;;5045335;28;20052;-76
2022/08/10 02:21:41;;;;;;;10.45;9.45;;;16.10;99.90;;;;;;5042301;28;20547;-76
2022/08/10 02:24:08;;;;;;;11.02;9.93;;;16.10;99.90;;;;;;5063296;28;20040;-76
2022/08/10 02:26:34;;;;;;;;;;;16.10;99.90;;;;;;5048275;28;20060;-76
2022/08/10 02:29:01;;;;;;;11.02;9.82;;;16.00;99.90;;;;;;5045133;28;19939;-76
2022/08/10 02:31:28;;;;;;;10.75;9.63;;;16.00;99.90;;;;;;5049673;28;20040;-76
2022/08/10 02:33:56;;;;;;;16.55;10.45;;;16.00;99.90;;;;;;5064529;28;20491;-77
2022/08/10 02:36:25;;;;;;;11.00;9.98;;;15.90;99.90;;;;;;5062029;28;20547;-75
2022/08/10 02:38:56;;;;;;;11.15;9.82;;;15.90;99.90;;;;;;5043572;28;20102;-76
2022/08/10 02:41:47;;;;;;;12.57;10.45;;;15.90;99.90;;;;;;5058586;28;20055;-76
2022/08/10 02:44:27;;;;;;;11.88;10.68;;;15.90;99.90;;;;;;5054629;28;20147;-76
2022/08/10 02:47:20;;;;;;;12.07;10.88;;;15.90;99.90;;;;;;5058361;28;20087;-76
2022/08/10 02:50:11;;;;;;;12.07;10.88;;;15.80;99.90;;;;;;5022494;28;20123;-76
2022/08/10 02:52:44;;;;;;;11.88;10.60;;;15.80;99.90;;;;;;5065654;28;20041;-75
2022/08/10 02:55:19;;;;;;;13.13;10.48;;;15.80;99.90;;;;;;5063078;28;20397;-76
2022/08/10 02:57:51;;;;;;;11.93;10.70;;;15.80;99.90;;;;;;5060731;28;20086;-76
2022/08/10 03:00:17;;;;;;;12.23;11.00;;;15.80;99.90;;;;;;5063300;28;20052;-76
2022/08/10 03:02:45;;;;;;;12.13;10.93;;;15.80;99.90;;;;;;5070283;28;20048;-76
2022/08/10 03:05:16;;;;;;;12.23;10.93;;;15.90;99.90;;;;;;5063360;28;20040;-78
2022/08/10 03:07:50;;;;;;;12.40;11.18;;;15.80;99.90;;;;;;5067880;28;20032;-74
2022/08/10 03:10:22;;;;;;;13.40;11.95;;;15.80;99.90;;;;;;5048543;28;20098;-76
2022/08/10 03:12:58;;;;;;;13.23;11.82;;;15.70;99.90;;;;;;5070410;28;20040;-76
2022/08/10 03:15:25;;;;;;;13.20;11.77;;;15.70;99.90;;;;;;5063825;28;20139;-74
2022/08/10 03:17:52;;;;;;;13.73;12.32;;;15.70;99.90;;;;;;5062454;28;20074;-75
2022/08/10 03:20:20;;;;;;;13.90;12.40;;;15.70;99.90;;;;;;5049088;28;20465;-76
2022/08/10 03:22:49;;;;;;;13.52;11.93;;;15.70;99.90;;;;;;5037441;28;20488;-75
2022/08/10 03:25:18;;;;;;;14.05;12.48;;;15.70;99.90;;;;;;5064589;28;20394;-76
2022/08/10 03:27:45;;;;;;;13.20;11.50;;;15.70;99.90;;;;;;5044539;28;20349;-76
2022/08/10 03:30:11;;;;;;;12.90;11.60;;;15.70;99.90;;;;;;5064844;28;20109;-76
2022/08/10 03:32:38;;;;;;;13.10;11.90;;;15.70;99.90;;;;;;5049166;28;20051;-76
2022/08/10 03:35:06;;;;;;;14.23;12.32;;;15.70;99.90;;;;;;5063661;28;20115;-75
2022/08/10 03:37:31;;;;;;;14.05;12.65;;;15.60;99.90;;;;;;5069841;28;20036;-76
2022/08/10 03:39:57;;;;;;;13.75;12.20;;;15.70;99.90;;;;;;5064600;28;20040;-76
2022/08/10 03:42:26;;;;;;;13.10;11.80;;;15.60;99.90;;;;;;5067065;28;20053;-76
2022/08/10 03:44:52;;;;;;;13.15;11.73;;;15.60;99.90;;;;;;5065996;28;20044;-76
2022/08/10 03:47:19;;;;;;;14.85;12.23;;;15.60;99.90;;;;;;5049682;28;20053;-76
2022/08/10 03:49:47;;;;;;;13.13;11.82;;;15.60;99.90;;;;;;5070088;28;20033;-76
2022/08/10 03:52:15;;;;;;;13.98;12.43;;;15.60;99.90;;;;;;5053211;28;20044;-75
2022/08/10 03:54:42;;;;;;;13.65;12.30;;;15.60;99.90;;;;;;5044010;28;20044;-75
2022/08/10 03:57:08;;;;;;;13.63;12.33;;;15.60;99.90;;;;;;5062517;28;20116;-76
2022/08/10 03:59:35;;;;;;;14.38;12.88;;;15.60;99.90;;;;;;5069478;28;20530;-75
2022/08/10 04:02:03;;;;;;;14.00;12.23;;;15.60;99.90;;;;;;5068428;28;20447;-76
2022/08/10 04:04:29;;;;;;;12.35;11.10;;;15.60;99.90;;;;;;5048820;28;20060;-76
2022/08/10 04:06:56;;;;;;;13.50;12.10;;;15.60;99.90;;;;;;5068365;28;20043;-74
2022/08/10 04:09:31;;;;;;;13.05;11.75;;;15.60;99.90;;;;;;5062510;28;20048;-76
2022/08/10 04:11:57;;;;;;;14.20;12.73;;;15.60;99.90;;;;;;5066434;28;20109;-75
2022/08/10 04:14:23;;;;;;;14.02;12.55;;;15.60;99.90;;;;;;5051322;28;20137;-76
2022/08/10 04:16:48;;;;;;;13.27;11.98;;;15.50;99.90;;;;;;5068962;28;20434;-76
2022/08/10 04:19:18;;;;;;;14.18;12.80;;;15.50;99.90;;;;;;5066318;28;20036;-76
2022/08/10 04:21:53;;;;;;;14.55;13.05;;;15.50;99.90;;;;;;5069242;28;20040;-76
2022/08/10 04:24:22;;;;;;;13.65;12.35;;;15.50;99.90;;;;;;5063083;28;20151;-76
2022/08/10 04:26:48;;;;;;;14.50;11.90;;;15.50;99.90;;;;;;5066048;28;20086;-75
2022/08/10 04:29:13;;;;;;;13.85;12.38;;;15.50;99.90;;;;;;5066403;28;20048;-74
2022/08/10 04:31:42;;;;;;;14.65;12.75;;;15.50;99.90;;;;;;5073678;28;20039;-76
2022/08/10 04:34:08;;;;;;;14.13;12.70;;;15.50;99.90;;;;;;5043997;28;20547;-77
2022/08/10 04:36:35;;;;;;;13.25;11.95;;;15.50;99.90;;;;;;5070845;28;20037;-75
2022/08/10 04:39:01;;;;;;;14.80;13.18;;;15.50;99.90;;;;;;5066617;28;20434;-76
2022/08/10 04:41:27;;;;;;;13.50;11.63;;;15.50;99.90;;;;;;5064175;28;20040;-76
2022/08/10 04:43:53;;;;;;;14.77;13.27;;;15.50;99.90;;;;;;5048440;28;20059;-76
2022/08/10 04:46:18;;;;;;;13.82;12.43;;;15.50;99.90;;;;;;5049531;28;20066;-76
2022/08/10 04:48:44;;;;;;;15.55;13.93;;;15.50;99.90;;;;;;5070248;28;20037;-75
2022/08/10 04:51:13;;;;;;;13.65;12.10;;;15.50;99.90;;;;;;5067994;28;20044;-75
2022/08/10 04:53:39;;;;;;;14.60;12.68;;;15.50;99.90;;;;;;5067126;28;20079;-76
2022/08/10 04:56:07;;;;;;;16.48;13.07;;;15.50;99.90;;;;;;5065240;28;20072;-75
2022/08/10 04:58:34;;;;;;;15.15;12.98;;;15.40;99.90;;;;;;5063283;28;20049;-75
2022/08/10 05:00:59;;;;;;;14.50;13.00;;;15.40;99.90;;;;;;5045786;28;20106;-76
2022/08/10 05:03:25;;;;;;;14.30;12.85;;;15.40;99.90;;;;;;5041467;28;20303;-75
2022/08/10 05:05:51;;;;;;;13.90;12.38;;;15.40;99.90;;;;;;5068670;28;20048;-76
2022/08/10 05:08:16;;;;;;;15.25;13.65;;;15.40;99.90;;;;;;5067601;28;20102;-75
2022/08/10 05:10:42;;;;;;;14.73;13.18;;;15.40;99.90;;;;;;5065578;28;20486;-76
2022/08/10 05:13:07;;;;;;;14.38;12.90;;;15.40;99.90;;;;;;5059398;28;20074;-75
2022/08/10 05:15:33;;;;;;;14.82;13.25;;;15.30;99.90;;;;;;5061631;28;20451;-76
2022/08/10 05:17:59;;;;;;;14.90;13.38;;;15.30;99.90;;;;;;5047801;28;20080;-76
2022/08/10 05:20:25;;;;;;;14.80;13.20;;;15.40;99.90;;;;;;5065827;28;20049;-75
2022/08/10 05:22:50;;;;;;;14.80;13.40;;;15.40;99.90;;;;;;5061528;28;20028;-76
2022/08/10 05:25:18;;;;;;;15.38;13.77;;;15.40;99.90;;;;;;5048065;28;20077;-76
2022/08/10 05:27:44;;;;;;;15.20;13.60;;;15.40;99.90;;;;;;5059266;28;20044;-76
2022/08/10 05:30:13;;;;;;;15.70;14.20;;;15.40;99.90;;;;;;5064560;28;20415;-76
2022/08/10 05:32:40;;;;;;;15.63;14.13;;;15.40;99.90;;;;;;5064093;28;20371;-76
2022/08/10 05:35:06;;;;;;;15.10;13.60;;;15.50;99.90;;;;;;5044880;28;20048;-75
2022/08/10 05:37:32;;;;;;;15.70;14.07;;;15.60;99.90;;;;;;5038611;28;20118;-76
2022/08/10 05:39:59;;;;;;;14.18;12.68;;;15.60;99.90;;;;;;5041027;28;20048;-76
2022/08/10 05:42:25;;;;;;;15.30;13.68;;;15.60;99.90;;;;;;5062577;28;20519;-74
2022/08/10 05:44:51;;;;;;;15.67;14.13;;;15.70;99.90;;;;;;5044532;28;20053;-82
2022/08/10 05:47:18;;;;;;;13.57;12.25;;;15.80;99.90;;;;;;5057192;28;20324;-81
2022/08/10 05:49:46;;;;;;;14.30;12.90;;;15.80;99.90;;;;;;5057207;28;20040;-82
2022/08/10 05:52:12;;;;;;;16.20;14.45;;;15.90;99.90;;;;;;5065749;28;20589;-82
2022/08/10 05:54:38;;;;;;;14.55;13.02;;;16.00;99.90;;;;;;5060192;28;20053;-82
2022/08/10 05:57:04;;;;;;;14.90;13.45;;;16.10;99.90;;;;;;5062034;28;20041;-81
2022/08/10 05:59:33;;;;;;;14.23;12.82;;;16.20;99.90;;;;;;5055782;28;20044;-83
2022/08/10 06:02:08;;;;;;;15.23;13.25;;;16.30;99.90;;;;;;5056585;28;20056;-80
2022/08/10 06:04:39;;;;;;;14.25;12.73;;;16.40;99.90;;;;;;5037687;28;20062;-78
2022/08/10 06:07:06;;;;;;;15.13;12.40;;;16.50;99.90;;;;;;5066240;28;20060;-80
2022/08/10 06:09:35;;;;;;;14.68;12.40;;;16.50;99.90;;;;;;5063124;28;20055;-81
2022/08/10 06:12:01;;;;;;;14.10;11.73;;;16.60;99.90;;;;;;5046391;28;20043;-80
2022/08/10 06:17:13;;;;;;;13.98;12.40;;;16.60;99.90;;;;;;5060590;28;20195;-79
2022/08/10 06:19:40;;;;;;;14.18;12.70;;;16.60;99.90;;;;;;5056668;28;20041;-81
2022/08/10 06:22:06;;;;;;;12.82;11.52;;;16.70;99.90;;;;;;5058856;28;20047;-80
2022/08/10 06:24:36;;;;;;;14.35;12.52;;;16.70;99.90;;;;;;5048966;28;20483;-80
2022/08/10 06:27:02;;;;;;;12.82;11.45;;;16.80;99.90;;;;;;5064534;28;20135;-81
2022/08/10 06:29:33;;;;;;;13.48;12.05;;;16.80;99.90;;;;;;5044594;28;20535;-80
2022/08/10 06:32:01;;;;;;;13.30;11.93;;;16.80;99.90;;;;;;5055656;28;20968;-80
2022/08/10 06:34:38;;;;;;;13.13;11.75;;;16.90;99.90;;;;;;5038522;28;20063;-79
2022/08/10 06:37:06;;;;;;;12.98;11.57;;;16.90;99.90;;;;;;5041975;28;20851;-80
2022/08/10 06:39:33;;;;;;;14.52;11.98;;;16.90;99.90;;;;;;5062263;28;20048;-81
2022/08/10 06:42:18;;;;;;;12.48;11.27;;;17.10;99.90;;;;;;5065067;28;20037;-80
2022/08/10 06:44:56;;;;;;;13.23;11.85;;;17.10;99.90;;;;;;5055326;28;20049;-80
2022/08/10 06:47:28;;;;;;;12.65;11.38;;;17.20;99.90;;;;;;5041426;28;20068;-80
2022/08/10 06:50:00;;;;;;;12.93;11.43;;;17.30;99.90;;;;;;5067129;28;20379;-82
2022/08/10 06:52:30;;;;;;;13.40;12.10;;;17.40;99.90;;;;;;5058473;28;20040;-82
2022/08/10 06:54:59;;;;;;;16.92;12.10;;;17.50;99.90;;;;;;5064852;28;20067;-80
2022/08/10 06:57:29;;;;;;;15.00;11.63;;;17.60;99.90;;;;;;5048659;28;20468;-77
2022/08/10 06:59:58;;;;;;;13.10;11.55;;;17.60;99.90;;;;;;5058546;28;20041;-81
2022/08/10 07:02:36;;;;;;;13.90;10.25;;;17.70;99.90;;;;;;5062760;28;20529;-82
2022/08/10 07:05:05;;;;;;;11.55;10.07;;;17.80;99.90;;;;;;5061781;28;20094;-81
2022/08/10 07:07:35;;;;;;;12.30;10.48;;;17.90;99.90;;;;;;5049095;28;20394;-83
2022/08/10 07:10:02;;;;;;;13.05;9.75;;;18.00;99.90;;;;;;5048407;28;20111;-81
2022/08/10 07:12:29;;;;;;;13.85;10.07;;;18.10;99.90;;;;;;5059478;28;20041;-84
2022/08/10 07:14:55;;;;;;;;;;;18.20;99.90;;;;;;5067916;28;20062;-87
2022/08/10 07:17:24;;;;;;;14.50;9.50;;;18.30;99.90;;;;;;5062850;28;19971;-89
2022/08/10 07:19:58;;;;;;;9.65;8.43;;;18.40;99.90;;;;;;5054542;28;20131;-83
2022/08/10 07:22:26;;;;;;;10.73;8.60;;;18.60;99.90;;;;;;5068129;28;20036;-81
2022/08/10 07:24:54;;;;;;;9.70;7.85;;;18.70;99.90;;;;;;5051184;28;20549;-84
2022/08/10 07:27:25;;;;;;;10.80;8.35;;;18.80;99.90;;;;;;5064232;28;20037;-88
2022/08/10 07:29:53;;;;;;;10.63;7.88;;;18.90;99.90;;;;;;5043416;28;20059;-88
2022/08/10 07:32:20;;;;;;;;;;;19.10;99.90;;;;;;5068092;28;20425;-89
2022/08/10 07:34:48;;;;;;;8.13;7.32;;;19.10;99.90;;;;;;5047392;28;19920;-92
2022/08/10 07:37:14;;;;;;;;;;;19.30;99.90;;;;;;5049070;28;20620;-90
2022/08/10 07:39:44;;;;;;;8.23;7.32;;;19.40;99.90;;;;;;5060264;28;19920;-81
2022/08/10 07:42:12;;;;;;;8.32;7.13;;;19.50;99.90;;;;;;5061796;28;20156;-82
2022/08/10 07:44:44;;;;;;;10.13;7.07;;;19.50;99.90;;;;;;5068356;28;20086;-79
2022/08/10 07:47:15;;;;;;;9.45;6.93;;;19.60;99.90;;;;;;5068381;28;20052;-80
2022/08/10 07:49:44;;;;;;;8.85;6.88;;;19.70;99.90;;;;;;5071070;28;20047;-81
2022/08/10 07:52:10;;;;;;;9.02;6.35;;;19.70;99.90;;;;;;5071755;28;20496;-84
2022/08/10 07:54:44;;;;;;;8.90;6.47;;;19.80;99.90;;;;;;5052601;28;20040;-83
2022/08/10 07:57:17;;;;;;;7.60;5.82;;;19.90;99.90;;;;;;5063758;28;20052;-76
2022/08/10 07:59:49;;;;;;;8.23;6.00;;;20.00;99.90;;;;;;5072257;28;20044;-77
2022/08/10 08:02:36;;;;;;;8.82;6.22;;;20.00;99.90;;;;;;5049235;28;20496;-78
2022/08/10 08:05:07;;;;;;;10.30;6.23;;;20.10;99.90;;;;;;5035686;28;20049;-80
2022/08/10 08:07:33;;;;;;;8.52;6.28;;;20.20;99.90;;;;;;5048628;28;20923;-79
2022/08/10 08:10:01;;;;;;;9.32;5.43;;;20.30;99.90;;;;;;5053381;28;20044;-80
2022/08/10 08:12:28;;;;;;;8.38;5.80;;;20.40;99.90;;;;;;5067993;28;20043;-81
2022/08/10 08:14:56;;;;;;;8.68;5.65;;;20.50;99.90;;;;;;5068936;28;20041;-80
2022/08/10 08:17:25;;;;;;;9.27;5.88;;;20.60;99.90;;;;;;5045744;28;20044;-78
2022/08/10 08:19:52;;;;;;;8.93;6.20;;;20.60;99.90;;;;;;5066596;28;20051;-78
2022/08/10 08:22:18;;;;;;;;;;;20.70;99.90;;;;;;5065820;28;20041;-80
2022/08/10 08:24:45;;;;;;;8.07;5.47;;;20.80;99.90;;;;;;5053663;28;20283;-79
2022/08/10 08:27:14;;;;;;;;;;;20.90;99.90;;;;;;5050656;28;20507;-78
2022/08/10 08:29:41;;;;;;;7.47;4.78;;;20.90;99.90;;;;;;5052338;28;19920;-78
2022/08/10 08:32:08;;;;;;;7.40;4.53;;;21.00;99.90;;;;;;5069536;28;20052;-77
2022/08/10 08:34:39;;;;;;;6.47;4.27;;;21.20;99.90;;;;;;5049239;28;20045;-79
2022/08/10 08:37:09;;;;;;;7.75;4.53;;;21.30;99.90;;;;;;5051792;28;20303;-80
2022/08/10 08:39:35;;;;;;;6.57;3.95;;;21.40;99.90;;;;;;5069030;28;20036;-79
2022/08/10 08:42:38;;;;;;;7.07;3.95;;;21.50;99.90;;;;;;5059134;28;20610;-84
2022/08/10 08:45:24;;;;;;;7.68;4.57;;;21.60;99.90;;;;;;5046955;28;20124;-79
2022/08/10 08:48:22;;;;;;;6.13;4.00;;;21.60;99.90;;;;;;5066711;28;20392;-87
2022/08/10 08:51:15;;;;;;;8.10;4.32;;;21.70;99.90;;;;;;5033714;28;20061;-78
2022/08/10 08:54:09;;;;;;;5.82;3.88;;;21.80;99.90;;;;;;5064538;28;20046;-78
2022/08/10 08:57:04;;;;;;;5.88;3.88;;;22.00;99.90;;;;;;5053008;28;20052;-80
2022/08/10 08:59:38;;;;;;;8.20;4.22;;;22.00;99.90;;;;;;5048873;28;20052;-80
2022/08/10 09:02:41;;;;;;;6.30;3.65;;;22.10;99.90;;;;;;5051089;28;20056;-79
2022/08/10 09:05:45;;;;;;;8.43;3.70;;;22.30;99.90;;;;;;5051734;28;20049;-79
2022/08/10 09:08:10;;;;;;;6.75;3.33;;;22.40;99.90;;;;;;5062155;28;20053;-79
2022/08/10 09:10:44;;;;;;;5.40;3.20;;;22.50;99.90;;;;;;5049729;28;20159;-80
2022/08/10 09:13:19;;;;;;;5.47;3.28;;;22.60;99.90;;;;;;5044261;28;20413;-79
2022/08/10 09:15:53;;;;;;;6.18;3.20;;;22.70;99.90;;;;;;5071852;28;20041;-81
2022/08/10 09:18:32;;;;;;;4.38;2.92;;;22.80;99.90;;;;;;5069735;28;20106;-81
2022/08/10 09:21:14;;;;;;;6.60;3.10;;;22.90;99.90;;;;;;5079173;28;20044;-80
2022/08/10 09:23:46;;;;;;;5.28;3.20;;;22.90;99.90;;;;;;5075571;28;20039;-76
2022/08/10 09:26:21;;;;;;;5.70;3.47;;;23.00;99.90;;;;;;5055302;28;20095;-76
2022/08/10 09:28:50;;;;;;;5.30;3.17;;;23.10;99.90;;;;;;5066469;28;20426;-78
2022/08/10 09:31:22;;;;;;;7.22;3.08;;;23.20;99.90;;;;;;5053231;28;20415;-79
2022/08/10 09:34:16;;;;;;;5.43;3.17;;;23.30;99.90;;;;;;5037187;28;20156;-79
2022/08/10 09:37:10;;;;;;;6.20;3.50;;;23.40;99.90;;;;;;5067721;28;20102;-80
2022/08/10 09:39:53;;;;;;;3.97;2.80;;;23.50;99.90;;;;;;5064029;28;20056;-80
2022/08/10 09:42:41;;;;;;;7.38;2.50;;;23.60;99.90;;;;;;5068204;28;20127;-79
2022/08/10 09:45:22;;;;;;;6.30;2.50;;;23.70;99.90;;;;;;5032264;28;20397;-82
2022/08/10 09:48:06;;;;;;;6.75;2.85;;;23.80;99.90;;;;;;5044812;28;20056;-79
2022/08/10 09:50:32;;;;;;;5.55;2.65;;;23.90;99.90;;;;;;5065289;28;20045;-79
2022/08/10 09:53:26;;;;;;;7.40;2.50;;;24.00;99.90;;;;;;5050365;28;20043;-79
2022/08/10 09:56:24;;;;;;;6.50;2.28;;;24.10;99.90;;;;;;5066053;28;20151;-80
2022/08/10 09:59:16;;;;;;;9.18;2.40;;;24.20;99.90;;;;;;5036230;28;20056;-80
2022/08/10 10:01:52;;;;;;;6.20;2.40;;;24.30;99.90;;;;;;5050555;28;20530;-79
2022/08/10 10:04:24;;;;;;;;;;;24.30;99.90;;;;;;5061231;28;20100;-83
2022/08/10 10:07:06;;;;;;;3.65;2.30;;;24.40;99.90;;;;;;5028013;28;19928;-84
2022/08/10 10:09:51;;;;;;;5.25;2.13;;;24.50;99.90;;;;;;5070914;28;20119;-83
2022/08/10 10:12:38;;;;;;;4.55;1.90;;;24.60;98.80;;;;;;5052120;28;20056;-83
2022/08/10 10:15:19;;;;;;;;;;;24.70;98.40;;;;;;5067335;28;20135;-83
2022/08/10 10:18:07;;;;;;;4.70;1.98;;;24.70;99.20;;;;;;5052038;28;19921;-82
2022/08/10 10:20:41;;;;;;;4.43;2.22;;;24.80;95.70;;;;;;5067075;28;20131;-82
2022/08/10 10:23:34;;;;;;;2.65;1.85;;;24.80;95.30;;;;;;5061613;28;20369;-77
2022/08/10 10:26:14;;;;;;;4.38;1.80;;;24.90;95.60;;;;;;5048207;28;20483;-82
2022/08/10 10:28:48;;;;;;;3.83;1.80;;;24.90;94.40;;;;;;5035057;28;20040;-79
2022/08/10 10:31:37;;;;;;;5.80;1.80;;;25.10;91.40;;;;;;5062535;28;20087;-80
2022/08/10 10:34:21;;;;;;;3.83;2.10;;;25.10;91.40;;;;;;5052040;28;20376;-80
2022/08/10 10:36:52;;;;;;;4.18;1.90;;;25.20;90.00;;;;;;5067235;28;20044;-80
2022/08/10 10:39:22;;;;;;;3.72;1.90;;;25.20;91.70;;;;;;5046463;28;20571;-80
2022/08/10 10:41:59;;;;;;;7.05;1.83;;;25.30;87.50;;;;;;5064323;28;20629;-81
2022/08/10 10:44:48;;;;;;;4.45;1.95;;;25.30;85.90;;;;;;5048766;28;20040;-76
2022/08/10 10:47:26;;;;;;;4.30;2.15;;;25.40;82.70;;;;;;5062863;28;20048;-79
2022/08/10 10:50:10;;;;;;;5.13;1.90;;;25.50;87.10;;;;;;5061374;28;20066;-79
2022/08/10 10:52:53;;;;;;;3.33;1.75;;;25.50;86.90;;;;;;5063361;28;20037;-79
2022/08/10 10:55:48;;;;;;;5.30;2.20;;;25.60;79.40;;;;;;5037589;28;20052;-79
2022/08/10 10:58:32;;;;;;;3.42;1.77;;;25.60;80.20;;;;;;5044548;28;20052;-79
2022/08/10 11:01:02;;;;;;;5.78;2.10;;;25.70;82.80;;;;;;5047524;28;20044;-79
2022/08/10 11:03:49;;;;;;;4.32;2.03;;;25.80;83.70;;;;;;5045970;28;20055;-78
2022/08/10 11:06:33;;;;;;;;;;;25.90;88.00;;;;;;5047027;28;20094;-82
2022/08/10 11:09:06;;;;;;;4.57;1.92;;;26.00;93.90;;;;;;5053067;28;19924;-81
2022/08/10 11:11:35;;;;;;;3.13;1.73;;;26.00;78.40;;;;;;5045526;28;20047;-77
2022/08/10 11:14:28;;;;;;;3.15;1.80;;;26.10;77.90;;;;;;5060509;28;20056;-80
2022/08/10 11:17:05;;;;;;;3.20;1.80;;;26.20;79.80;;;;;;5043164;28;20052;-83
2022/08/10 11:19:43;;;;;;;3.20;1.88;;;26.30;76.10;;;;;;5049603;28;20059;-83
2022/08/10 11:22:12;;;;;;;4.18;1.67;;;26.40;83.30;;;;;;5049320;28;20067;-83
2022/08/10 11:25:25;;;;;;;2.45;1.60;;;26.50;76.20;;;;;;5046233;28;20055;-85
2022/08/10 11:28:29;;;;;;;2.85;1.77;;;26.70;75.70;;;;;;5041726;28;20052;-81
2022/08/10 11:31:03;;;;;;;7.88;2.08;;;26.80;69.90;;;;;;5068643;28;20047;-77
2022/08/10 11:34:23;;;;;;;3.65;1.73;;;26.80;65.80;;;;;;5064493;28;20105;-86
2022/08/10 11:36:58;;;;;;;5.30;1.73;;;26.80;66.80;;;;;;4991628;28;20068;-76
2022/08/10 11:39:49;;;;;;;3.00;2.00;;;26.80;62.00;;;;;;5030792;28;20052;-79
2022/08/10 11:42:31;;;;;;;2.58;1.88;;;26.90;66.30;;;;;;5070274;28;20041;-77
2022/08/10 11:45:07;;;;;;;5.35;2.10;;;26.90;64.30;;;;;;5050690;28;20476;-77
2022/08/10 11:47:57;;;;;;;5.55;1.77;;;26.90;65.00;;;;;;5069645;28;20127;-76
2022/08/10 11:50:35;;;;;;;3.67;1.80;;;27.00;62.00;;;;;;5060738;28;20040;-76
2022/08/10 11:53:20;;;;;;;3.67;1.70;;;27.10;63.10;;;;;;5050142;28;20056;-76
2022/08/10 11:55:53;;;;;;;3.63;1.50;;;27.10;65.60;;;;;;5070368;28;20048;-76
2022/08/10 12:01:09;;;;;;;4.40;1.40;;;27.40;57.60;;;;;;5069958;28;20048;-75
2022/08/10 12:03:37;;;;;;;5.35;1.48;;;27.50;55.60;;;;;;5052291;28;20403;-75
2022/08/10 12:06:08;;;;;;;2.70;1.40;;;27.60;55.30;;;;;;5067284;28;20399;-74
2022/08/10 12:08:35;;;;;;;4.20;1.50;;;27.70;55.30;;;;;;5048307;28;20052;-75
2022/08/10 12:11:01;;;;;;;2.95;1.77;;;27.70;54.40;;;;;;5064398;28;20048;-75
2022/08/10 12:14:02;;;;;;;3.30;1.60;;;27.80;55.60;;;;;;5052917;28;20599;-75
2022/08/10 12:16:30;;;;;;;2.38;1.40;;;27.80;56.10;;;;;;5029560;28;20094;-75
2022/08/10 12:19:12;;;;;;;2.38;1.40;;;27.70;53.20;;;;;;5046193;28;20048;-75
2022/08/10 12:21:58;;;;;;;3.63;1.45;;;27.70;53.70;;;;;;5066259;28;20040;-75
2022/08/10 12:24:54;;;;;;;2.58;1.58;;;27.80;52.70;;;;;;5052519;28;20070;-74
2022/08/10 12:27:40;;;;;;;3.00;1.47;;;27.90;53.20;;;;;;5048042;28;20036;-73
2022/08/10 12:30:13;;;;;;;5.03;1.70;;;28.00;52.30;;;;;;5045883;28;20432;-73
2022/08/10 12:33:08;;;;;;;5.53;1.48;;;28.00;51.30;;;;;;5050211;28;20044;-71
2022/08/10 12:35:44;;;;;;;2.08;1.20;;;28.00;50.80;;;;;;5063807;28;20040;-77
2022/08/10 12:38:26;;;;;;;5.75;1.60;;;28.10;49.10;;;;;;5064224;28;20063;-77
2022/08/10 12:40:59;;;;;;;6.80;1.60;;;28.20;47.90;;;;;;5043777;28;20052;-80
2022/08/10 12:43:45;;;;;;;4.75;1.50;;;28.20;48.90;;;;;;5043827;28;20063;-78
2022/08/10 12:46:38;;;;;;;3.10;1.40;;;28.30;49.40;;;;;;5044936;28;20102;-80
2022/08/10 12:49:34;;;;;;;3.72;1.63;;;28.30;48.60;;;;;;5036538;28;20310;-78
2022/08/10 12:52:12;;;;;;;;;;;28.40;49.80;;;;;;5043233;28;20040;-81
2022/08/10 12:54:40;;;;;;;4.72;1.60;;;28.30;49.80;;;;;;5066599;28;19966;-81
2022/08/10 12:57:16;;;;;;;1.80;1.38;;;28.40;49.00;;;;;;5044578;28;20040;-80
2022/08/10 12:59:44;;;;;;;1.52;1.42;;;28.50;47.90;;;;;;5063085;28;20051;-72
2022/08/10 13:02:24;;;;;;;3.38;1.42;;;28.50;48.30;;;;;;5044469;28;20048;-74
2022/08/10 13:04:53;;;;;;;5.63;1.60;;;28.60;47.80;;;;;;5042009;28;20098;-75
2022/08/10 13:07:37;;;;;;;2.97;1.45;;;28.60;47.30;;;;;;5059528;28;20041;-73
2022/08/10 13:10:17;;;;;;;3.75;1.50;;;28.60;47.70;;;;;;5065378;28;20072;-75
2022/08/10 13:12:47;;;;;;;4.47;1.92;;;28.70;47.80;;;;;;5044108;28;20296;-75
2022/08/10 13:15:24;;;;;;;5.35;1.27;;;28.80;46.90;;;;;;5041089;28;20048;-76
2022/08/10 13:17:51;;;;;;;5.70;1.70;;;28.90;48.20;;;;;;5044333;28;20040;-76